SiktMolnbas
>≥ 10km≥ 10km ≥ 2000ft≥ 2000ft
< 10km< 10km < 2000ft< 2000ft
< 8km< 8km < 1500ft< 1500ft
< 5km< 5km < 1000ft< 1000ft
< 3km< 3km < 500ft< 500ft

Nytt 18 jan 2017:

Nytt 17 jan 2017:

ESNQ (13:50 UTC)

Kiruna flygplats

METAR

ESNQ 181350Z 21003KT CAVOK M15/M16 Q1006=

TAF

ESNQ 181430Z 1815/1824 22004KT CAVOK=

ESNG (13:50 UTC)

Gällivare (Kavaheden), Lapland Airport

METAR

ESNG 181350Z 30004KT CAVOK M18/M20 Q1007=

TAF

ESNG 181430Z 1815/1822 30005KT CAVOK=

ESPA (13:50 UTC)

Luleå Airport (Kallax)

METAR

ESPA 181350Z VRB02KT CAVOK M14/M15 Q1010=

TAF

ESPA 181130Z 1812/1821 VRB02KT CAVOK RMK MIL=

ESNL (13:50 UTC)

Lycksele flygplats

METAR

ESNL 181350Z AUTO VRB02KT 9999 FEW026/// SCT044/// M07/M09 Q1008=

TAF

Ingen TAF hittades.

ESNU (13:50 UTC)

Umeå City Airport

METAR

ESNU 181350Z 00000KT CAVOK M08/M08 Q1011 RWY 14 ICE 11-25 PCT FCT 0.50=

TAF

SN

ESNU 181430Z 1815/1824 VRB02KT CAVOK PROB40 1819/1821 2000 -SN VV012=

ESNO (13:50 UTC)

Örnsköldsvik flygplats

METAR

ESNO 181350Z 23003KT CAVOK M06/M07 Q1011=

TAF

ESNO 181430Z 1815/1823 23005KT CAVOK=

ESNK (13:50 UTC)

Kramfors-Sollefteå flygplats

METAR

ESNK 181350Z AUTO 33004KT 9999 NCD ///// Q1013=

TAF

ESNK 181430Z 1815/1821 33005KT CAVOK=

ESNN (13:50 UTC)

Sundsvall-Härnösands flygplats (Midlanda)

METAR

ESNN 181350Z 32003KT CAVOK M08/M08 Q1014 RWY 16 ICE 51-100 PCT FCT 0.66=

TAF

ESNN 181430Z 1815/1824 32003KT CAVOK=

ESNZ (13:50 UTC)

Åre Östersund Airport (Frösön)

METAR

ESNZ 181350Z 27011KT 9999 FEW031 00/M02 Q1011=

TAF

ESNZ 181430Z 1815/1823 28012KT 9999 SCT030=

ESNS (13:50 UTC)

Skellefteå flygplats

METAR

ESNS 181350Z VRB01KT CAVOK M07/M08 Q1010=

TAF

SN

ESNS 181430Z 1815/1823 28005KT CAVOK PROB40 1818/1821 2000 -SN VV012=

ESGT (13:50 UTC)

Trollhättan-Vänersborgs flygplats (Malöga flygplats)

METAR

BR

ESGT 181350Z 19008KT 2000 BR VV005 02/02 Q1020=

TAF

DZBR

ESGT 181430Z 1815/1818 20007KT 5000 BR OVC006 TEMPO 1815/1818 2000 -DZ BKN003=

ESGG (13:50 UTC)

Göteborg-Landvetter flygplats

METAR

DZ

ESGG 181350Z 20012KT 5000 -DZ OVC004 01/00 Q1020 RWY 21 WET OR WATER PATCHES 51-100 PCT LESS THAN 1 MM BA GOOD=

TAF

RAFG

ESGG 181130Z 1812/1912 19008KT 9999 SCT005 BKN010 TEMPO 1812/1815 2500 -RASN BR OVC004 BECMG 1815/1817 3000 BR -DZ OVC003 TEMPO 1817/1912 0200 FG VV002=

ESMT (13:50 UTC)

Halmstads flygplats

METAR

ESMT 181350Z 21013KT 9999 BKN005 01/00 Q1022=

TAF

BR

ESMT 181053Z 1812/1821 20010KT 5000 BR BKN008 TEMPO 1812/1821 2000 BKN004=

ESTA (13:50 UTC)

Ängelholm-Helsingborg flygplats

METAR

ESTA 181350Z 21008KT 9999 OVC006 01/M00 Q1023=

TAF

BR

ESTA 181053Z 1812/1821 19008KT 5000 BR BKN008 TEMPO 1812/1821 2000 BKN004=

ESMS (13:50 UTC)

Malmö Airport

METAR

ESMS 181350Z 18005KT 9999 BKN017 02/00 Q1024 RWY 17 DAMP 51-100 PCT BA GOOD=

TAF

FG

ESMS 181053Z 1812/1912 20008KT 9999 SCT008 BKN015 TEMPO 1812/1819 BKN008 BECMG 1819/1822 4000 BR BKN006 PROB40 1900/1909 0300 FG VV001 TEMPO 1909/1912 8000 SCT008 BKN015=

ESMK (13:50 UTC)

Kristianstad Airport

METAR

ESMK 181350Z 17004KT 9999 FEW014 BKN024 01/01 Q1024=

TAF

BR

ESMK 181053Z 1812/1820 VRB05KT 9999 SCT010 BKN015 TEMPO 1812/1818 BKN010 TEMPO 1818/1820 4000 BR BKN008=

ESDF (13:50 UTC)

Ronneby flygplats

METAR

ESDF 181350Z 23004KT 9999 BKN027 02/M01 Q1024=

TAF

ESDF 181430Z 1815/1823 24004KT 9999 BKN025 PROB40 1819/1823 BKN012=

ESMQ (13:50 UTC)

Kalmar Airport

METAR

ESMQ 181350Z 19004KT CAVOK 00/M01 Q1024=

TAF

ESMQ 181430Z 1815/1823 21005KT 9999 SCT025=

ESMX (13:50 UTC)

Växjö, Smaland Airport

METAR

ESMX 181350Z 19007KT 9999 OVC008 M00/M02 Q1022=

TAF

SNBR

ESMX 181430Z 1815/1824 19006KT 9999 BKN006 TEMPO 1815/1816 BKN010 PROB40 1816/1821 4000 -SN SG BKN004 TEMPO 1821/1824 2000 BR BKN003=

ESGJ (13:50 UTC)

Jönköping Airport

METAR

SNBR

ESGJ 181350Z 20011KT 3500 -SN BR OVC003 00/00 Q1020 RWY 19 DAMP 51-100 PCT LESS THAN 1 MM FCT 0.70=

TAF

SNFG

ESGJ 181430Z 1815/1824 21005KT 9999 BKN003 TEMPO 1815/1817 2500 -SN VV010 PROB40 1817/1821 2500 BR BKN006 PROB40 1821/1824 0800 FG=

ESSA (13:50 UTC)

Stockholm-Arlanda flygplats

METAR

SN

ESSA 181350Z 22011KT 6000 -SN BKN006 00/M00 Q1018 RWY 01L SLUSH 0-10 PCT 1 MM FCT 0.73 RWY 01R SLUSH 0-10 PCT 1 MM FCT 0.75 R08/SNOCLO TEMPO 6000=

TAF

SN

ESSA 181130Z 1812/1912 25010KT 2500 -SN BKN008 TEMPO 1812/1815 6000 SNRA BKN010 BECMG 1815/1817 9999 BKN030 PROB40 1817/1822 BKN004 BECMG 1822/1824 32005KT=

ESSB (13:50 UTC)

Stockholm-Bromma flygplats

METAR

SN

ESSB 181350Z 22006KT 5000 -SN OVC007 M00/M00 Q1019 RWY 30 DAMP 51-100 PCT FCT 0.66=

TAF

SN

ESSB 181130Z 1812/1821 25008KT 2500 -SN BKN008 TEMPO 1812/1817 6000 SNRA BKN010 BECMG 1817/1819 9999 TEMPO 1817/1821 BKN010=

ESKN (13:50 UTC)

Stockholm-Skavsta flygplats

METAR

ESKN 181350Z 23007KT 9999 SCT010 BKN035 M00/M01 Q1020 RWY 26 ICE 0-10 PCT 1 MM FCT 0.36=

TAF

SN

ESKN AAA 181308Z 1813/1912 25008KT 8000 -SN SCT008 BKN060 BECMG 1813/1814 BKN008 TEMPO 1813/1819 2500 -SNRA BKN010 PROB40 1819/1906 BKN004 BECMG 1823/1901 31010KT PROB40 1906/1912 SCT008=

ESSP (13:50 UTC)

Norrköping flygplats

METAR

ESSP 181350Z 21006KT 9999 SCT019 OVC068 01/M00 Q1020 RWY 27 DAMP 51-100 PCT LESS THAN 1 MM BA GOOD=

TAF

SN

ESSP AAE 181400Z 1814/1821 25005KT 9999 BKN008 TEMPO 1814/1815 SCT008 TEMPO 1814/1819 2500 -SNRA BKN012 TEMPO 1819/1821 BKN010=

ESSL (13:50 UTC)

Linköping - SAAB Flygplats

METAR

ESSL 181350Z 22006KT 190V260 CAVOK 01/M00 Q1020 RWY 29 RIME OR FROST 51-100 PCT BA GOOD=

TAF

ESSL 181135Z 1812/1821 21008KT 9999 BKN030 TEMPO 1812/1821 5000 SNRA BKN009 RMK MIL=

ESSV (13:50 UTC)

Visby flygplats

METAR

ESSV 181350Z 25015KT 9999 SCT016 02/M01 Q1022 RWY 21 ICE 0-10 PCT FCT 0.87=

TAF

ESSV 181130Z 1812/1820 25012KT 9999 BKN008 BECMG 1812/1813 NSC TEMPO 1816/1820 BKN008=

ESOW (13:50 UTC)

Stockholm-Västerås flygplats

METAR

ESOW 181350Z 22009KT 9999 BKN009 01/M00 Q1019 RWY 19 ICE 11-25 PCT 1 MM FCT 0.45=

TAF

SN

ESOW 181130Z 1812/1818 25010KT 2500 -SN BKN008 TEMPO 1812/1815 6000 SNRA BKN010 BECMG 1816/1818 9999 BKN030=

ESOE (13:50 UTC)

Örebro flygplats

METAR

ESOE 181350Z 24010KT 9999 FEW007 OVC010 02/01 Q1019=

TAF

RA

ESOE 181130Z 1812/1821 25012KT 9999 -RADZ BKN008 TEMPO 1812/1815 2500 -RASN BKN010 TEMPO 1815/1821 BKN004=

ESOK (13:56 UTC)

Karlstad Airport

METAR

BR

ESOK 181356Z 22008KT 8000 BR BKN004 01/01 Q1018=

TAF

RABR

ESOK AAB 181158Z 1812/1821 25012KT 9999 BKN003 TEMPO 1812/1821 4000 -RADZ BR BKN006 BECMG 1815/1817 32005KT=

ESSD (13:50 UTC)

Borlänge, Dala Airport

METAR

ESSD 181350Z 27005KT 9999 OVC011 02/01 Q1016=

TAF

ESSD AAD 181317Z 1813/1820 29008KT 9999 BKN008 BECMG 1813/1815 BKN030=

ESGR (13:50 UTC)

Skövde flygplats

METAR

DZ

ESGR 181350Z AUTO 19007KT 9999 -DZ OVC013/// 01/01 Q1019=

TAF

Ingen TAF hittades.

ESIB (13:50 UTC)

Såtenäs

METAR

SHRABR

ESIB 181350Z AUTO 21008KT 3700 -SHRA BR BKN005/// OVC008/// 01/01 Q1019=

TAF

Ingen TAF hittades.

ESNV (13:50 UTC)

Vilhelmina flygplats

METAR

SN

ESNV 181350Z AUTO VRB02KT 9999 -SN ///022 M04/M05 Q1007=

TAF

Ingen TAF hittades.

ESST (13:50 UTC)

Torsby flygplats (Fryklanda)

METAR

ESST 181350Z AUTO 33004KT 9999 FEW006/// BKN009/// OVC011/// M02/M02 Q1017=

TAF

Ingen TAF hittades.

ESUT (13:50 UTC)

Hemavans flygplats

METAR

ESUT 181350Z AUTO 00000KT 2200 FZUP VV014 M03/M04 Q1005=

TAF

Ingen TAF hittades.

ESNX (13:50 UTC)

Arvidsjaur flygplats

METAR

ESNX 181350Z 00000KT 9999 BKN033 M10/M11 Q1006 RESN=

TAF

SN

ESNX 181430Z 1815/1821 VRB02KT 9999 BKN030 TEMPO 1815/1818 2000 -SN VV013=

ESIA (13:50 UTC)

Karlsborg

METAR

RA

ESIA 181350Z AUTO 22008KT 9999 -RA OVC009/// 01/M00 Q1019=

TAF

Ingen TAF hittades.

ESUD (13:50 UTC)

Storuman

METAR

SN

ESUD 181350Z AUTO 00000KT 1700 -SN VV009 M06/M06 Q1007=

TAF

Ingen TAF hittades.

ESUP (13:50 UTC)

Pajala

METAR

ESUP 181350Z 00000KT CAVOK M26/M29 Q1010=

TAF

Ingen TAF hittades.

ESPE (13:50 UTC)

Vidsel

METAR

SN

ESPE 181350Z 00000KT 9999 -SN VV037 M11/M12 Q1009=

TAF

SN

ESPE AAA 181155Z 1812/1815 VRB02KT 9999 VV025 TEMPO 1812/1815 2500 SN VV012 RMK MIL=

ESCM (13:50 UTC)

Uppsala

METAR

SN

ESCM 181350Z 24011KT 9999 -SN OVC007 01/01 Q1018=

TAF

RA

ESCM 181115Z 1812/1815 21012KT 6000 -SN SCT007 BKN025 TEMPO 1812/1815 2000 RASN BKN006 RMK MIL=

ESKM (13:50 UTC)

Mora/Siljan

METAR

ESKM 181350Z AUTO 27003KT 9999 OVC059/// M02/M02 Q1016=

TAF

Ingen TAF hittades.

EKRN (13:50 UTC)

Bornholm Airport

METAR

EKRN 181350Z AUTO 22007KT 170V260 9999NDV BKN027/// 02/M03 Q1026=

TAF

EKRN 181111Z 1812/1821 21012KT 9999 SCT020=

EFIV (13:20 UTC)

Ivalo Airport

METAR

EFIV 181320Z 21007KT CAVOK M17/M19 Q1007=

TAF

EFIV 181125Z 1812/1817 22009KT CAVOK PROB40 1812/1817 7000 BKN004=

EFKT (13:50 UTC)

Kittilä Airport

METAR

EFKT 181350Z 01002KT 9999 -SG FEW002 M22/M24 Q1009=

TAF

BR

EFKT 181125Z 1812/1821 VRB02KT 1000 BR OVC002 TEMPO 1812/1821 8000 SCT002=

EFRO (13:50 UTC)

Rovaniemi Airport

METAR

FG

EFRO 181350Z AUTO 23002KT 0150 R21/0900U FZFG VV001 M13/M15 Q1009=

TAF

BR

EFRO 181125Z 1812/1912 26005KT 0300 FZFG VV001 TEMPO 1812/1821 3000 BR BKN002 PROB30 1812/1818 8000 NSW SCT004 TEMPO 1821/1905 0800 FZFG VV002 TEMPO 1905/1912 3000 BR BKN002=

EFKE (13:50 UTC)

Kemi-Tornio Airport

METAR

EFKE 181350Z 01003KT 3700 BKN002 M15/M17 Q1011=

TAF

BR

EFKE AAB 181235Z 1812/1821 VRB02KT 9999 FEW001 TEMPO 1812/1821 2500 BR BKN001=

EFKS (13:50 UTC)

Kuusamo Airport

METAR

SN

EFKS 181350Z AUTO 25007KT 220V300 9999 -SN OVC012 M02/M04 Q1009=

TAF

Ingen TAF hittades.

EFOU (13:50 UTC)

Oulu Airport

METAR

EFOU 181350Z AUTO 18005KT 9999 OVC014/// M00/M02 Q1011=

TAF

EFOU 181125Z 1812/1912 22008KT 9999 FEW012 BKN020 TEMPO 1812/1824 BKN010=

EFKI (13:50 UTC)

Kajaani Airport

METAR

EFKI 181350Z AUTO 19004KT 140V240 9999 OVC019 M02/M03 Q1013=

TAF

EFKI 181136Z 1812/1821 20007KT 9999 BKN015 TEMPO 1815/1821 BKN008=

EFKK (13:50 UTC)

Kokkola-Pietarsaari/Kruunupyy Airport

METAR

EFKK 181350Z AUTO 15004KT 9999 SCT007 OVC018 M00/M01 Q1011=

TAF

SN

EFKK 181132Z 1812/1821 18006KT 9999 BKN020 PROB40 TEMPO 1812/1814 4000 -SN BKN012=

EFVA (13:50 UTC)

Vaasa Airport

METAR

EFVA 181350Z AUTO 21003KT 9999 OVC017/// M00/M02 Q1011=

TAF

FZDZBR

EFVA 181132Z 1812/1912 18009KT 9999 FEW005 BKN013 TEMPO 1812/1815 2500 -SN PROB40 TEMPO 1812/1815 -FZDZ BKN009 TEMPO 1900/1909 4000 BR BKN005=

EFKU (13:50 UTC)

Kuopio Airport

METAR

EFKU 181350Z 18009KT 9999 OVC007 M01/M03 Q1015=

TAF

FZDZBR

EFKU 181136Z 1812/1912 19008KT 9999 BKN013 PROB40 1812/1816 3000 -FZDZ OVC008 BECMG 1816/1818 BKN007 TEMPO 1818/1823 4000 -SN BECMG 1823/1901 12003KT 4000 BR TEMPO 1823/1909 1200 BKN002=

EFJY (13:50 UTC)

Jyväskylä Airport

METAR

SN

EFJY 181350Z 18006KT 9000 -SN BKN010 M01/M02 Q1014=

TAF

FZDZBR

EFJY 181132Z 1812/1912 18005KT 5000 -SN BKN009 TEMPO 1812/1819 2000 PROB40 TEMPO 1817/1822 -FZDZ TEMPO 1822/1906 2000 BR BKN004 TEMPO 1906/1912 9999 SCT008 BKN020=

EFTP (13:50 UTC)

Tampere-Pirkkala Airport

METAR

EFTP 181350Z AUTO 20008KT 5000 -PL FEW002 SCT005 BKN007 OVC010 00/00 Q1015=

TAF

SNBR

EFTP 181132Z 1812/1912 20009KT 4000 -SN SCT005 BKN010 TEMPO 1812/1819 2000 SN BKN005 TEMPO 1819/1912 1200 BR BKN003 PROB30 1902/1909 0700 FZFG=

EFPO (13:50 UTC)

Pori Airport

METAR

RA

EFPO 181350Z AUTO 23008KT 7000 -RA OVC007/// 02/01 Q1014=

TAF

RA

EFPO 181132Z 1812/1821 22006KT 6000 -RA BKN006 TEMPO 1812/1816 2700 RASN BKN004 TEMPO 1818/1821 9999 FEW006 BKN012=

EFTU (13:50 UTC)

Turku Airport

METAR

RA

EFTU 181350Z AUTO 22007KT 190V260 7000 -RA OVC006/// 02/01 Q1016=

TAF

RABR

EFTU 181123Z 1812/1912 22009KT 9999 BKN014 TEMPO 1812/1819 7000 RA BKN008 TEMPO 1819/1906 3000 BR BKN005=

EFHK (13:50 UTC)

Helsinki-Vantaa Airport

METAR

EFHK 181350Z 20013KT 9999 FEW015 BKN140 02/M01 Q1018 NOSIG=

TAF

DZBR

EFHK 181123Z 1812/1912 20013KT 9999 FEW017 BKN025 BECMG 1817/1819 BKN012 TEMPO 1819/1824 4000 -DZRA BKN008 BECMG 1900/1902 28005KT TEMPO 1900/1906 1500 BR BKN005=

EFMA (13:50 UTC)

Mariehamn Airport

METAR

RA

EFMA 181350Z 23009KT 170V280 5000 -RA OVC005 01/00 Q1017=

TAF

RA

EFMA 181123Z 1812/1821 21012KT 9999 BKN007 TEMPO 1812/1821 7000 RA=

EKSB (13:57 UTC)

Sønderborg Airport

METAR

EKSB 181357Z 22006KT 190V250 7000 BKN011 03/01 Q1024=

TAF

BR

EKSB 181154Z 1812/1818 18008KT 8000 BKN014 TEMPO 1812/1818 2500 BR BKN008=

EKSP (13:50 UTC)

Vojens Airport

METAR

BR

EKSP 181350Z 22008KT 3500 BR SCT004 BKN006 02/01 Q1023 TEMPO 2000 -DZ BKN004=

TAF

DZBR

EKSP RRA 181134Z 1812/1912 20008KT 5000 BR SCT006 BKN010 TEMPO 1812/1816 1800 -DZ BKN004 BECMG 1816/1818 26008KT 9999 NSW SCT015 BECMG 1820/1822 3000 MIFG BR TEMPO 1822/1909 0200 FZFG VV001=

EKEB (13:50 UTC)

Esbjerg Airport

METAR

BR

EKEB 181350Z AUTO 19006KT 3200NDV BR FEW003/// SCT018/// SCT021/// 03/03 Q1023=

TAF

RABR

EKEB AAA 181239Z 1812/1821 19007KT 2000 -RADZ BR BKN004 BECMG 1813/1815 8000 NSW SCT008 BKN015 TEMPO 1815/1821 4000 BR BKN008=

EKYT (13:57 UTC)

Aalborg Airport

METAR

FG

EKYT 181357Z 23004KT 0800 R08/0600N R26/0750N FG OVC004 03/03 Q1019=

TAF

FG

EKYT AAA 181357Z 1813/1912 22005KT 5000 BR SCT005 BKN020 TEMPO 1813/1816 0800 FG BKN002 BECMG 1816/1818 VRB05KT 3000 MIFG TEMPO 1818/1909 0300 FZFG VV001=

EKKA (13:50 UTC)

Karup Airport

METAR

FG

EKKA 181350Z 21007KT 0250 R09/0500N R27/0650N FG VV002 03/03 Q1021 TEMPO 2500 BR BKN004=

TAF

FG

EKKA AAC 181340Z 1813/1912 22008KT 0300 FG VV002 BECMG 1814/1816 3000 BR BKN005 BECMG 1816/1818 30005KT 8000 NSW SCT015 BECMG 1818/1820 2000 MIFG BR TEMPO 1820/1909 0300 FG FZFG VV001=

EKBI (13:50 UTC)

Billund Airport

METAR

BR

EKBI 181350Z 21009KT 3000 BR BKN004 02/02 Q1022=

TAF

RABR

EKBI AAA 181308Z 1813/1912 20008KT 2000 -RADZ BR BKN004 TEMPO 1813/1816 5000 BKN005 BECMG 1816/1818 30006KT 6000 NSW SCT010 TEMPO 1818/1822 4000 BR BKN008 PROB40 1822/1908 0500 FZFG VV001 TEMPO 1908/1912 2000 BR BKN004=

EKVD (13:50 UTC)

Kolding Airport

METAR

DZBR

EKVD 181350Z 22009KT 4000 -DZ BR SCT007 BKN009 02/02 Q1023=

TAF

BR

EKVD 181154Z 1812/1817 20008KT 9999 BKN020 TEMPO 1812/1817 4000 BR BKN008=

EKOD (13:50 UTC)

Odense Airport

METAR

RA

EKOD 181350Z 22009KT 2800 -RA OVC011 02/01 Q1023=

TAF

BR

EKOD AAA 181352Z 1813/1817 18006KT 8000 BKN014 TEMPO 1813/1817 2500 BR BKN008=

EKCH (13:50 UTC)

Copenhagen Airport, Kastrup

METAR

EKCH 181350Z 21008KT 9999 SCT012 02/01 Q1024 TEMPO BKN012=

TAF

BR

EKCH 181053Z 1812/1912 20010KT 8000 SCT008 BKN015 TEMPO 1812/1820 BKN008 BECMG 1820/1823 26008KT 4000 BR BKN006 TEMPO 1823/1907 1200 BR BKN002 BECMG 1907/1909 36005KT 8000 NSW SCT008 BKN015 TEMPO 1909/1912 4000 BR BKN006=

EKRK (13:50 UTC)

Copenhagen Airport, Roskilde

METAR

EKRK 181350Z AUTO 20007KT 9999NDV BKN010/// OVC013/// 02/01 Q1024=

TAF

BR

EKRK 181111Z 1812/1821 19008KT 8000 SCT008 BKN012 TEMPO 1812/1819 4000 BR BKN008 BECMG 1819/1821 2000 BR BKN004=

ENRY (13:50 UTC)

Moss flygplats, Rygge

METAR

FG

ENRY 181350Z 33004KT 0100 R12/0300 R30/0350N FZFG OVC001 M00/M01 Q1018 TEMPO 0300 FZFG=

TAF

BR

ENRY AAB 181339Z 1813/1912 VRB05KT 0100 FZFG VV001 PROB30 TEMPO 1813/1912 4000 BR BKN003=

ENGM (13:50 UTC)

Oslo flygplats, Gardermoen

METAR

SHSNBR

ENGM 181350Z VRB02KT 3500 0900SW R19R/P2000N R01R/P2000N -SHSN BR OVC002 M05/M06 Q1017 TEMPO 0700 FZFG VV001=

TAF

ENGM 181100Z 1812/1912 VRB05KT 9999 OVC003 PROB40 1812/1912 0500 FZFG VV001=

ENTO (13:50 UTC)

Sandefjord flygplats, Torp

METAR

ENTO 181350Z 34003KT 5000 0500NE R18/1100D R36/P2000N PRFG VV001 M01/M01 Q1018=

TAF

ENTO AAC 181350Z 1813/1912 VRB05KT 9000 SCT002 PROB40 1813/1909 0100 FZFG VV001=

ENCN (13:50 UTC)

Kristiansand flygplats, Kjevik

METAR

ENCN 181350Z 31008KT 280V340 CAVOK 04/M00 Q1019=

TAF

ENCN 181100Z 1812/1821 01005KT CAVOK=

ENZV (13:50 UTC)

Stavanger-Sola flygplats

METAR

ENZV 181350Z VRB02KT 9999 FEW035 SCT110 02/01 Q1022 NOSIG=

TAF

DZ

ENZV 181100Z 1812/1912 VRB05KT 9999 FEW004 BKN040 BECMG 1823/1902 15010KT TEMPO 1823/1906 3000 -DZRA SCT004 BKN008=

ENHD (13:50 UTC)

Haugesund flygplats, Karmøy

METAR

ENHD 181350Z 09003KT 9999 FEW040 SCT086 03/02 Q1022=

TAF

RA

ENHD 181100Z 1812/1821 VRB07KT 9999 FEW020 BKN040 BECMG 1819/1821 17010KT -RA BKN014=

ENBR (13:50 UTC)

Bergen flygplats, Flesland

METAR

ENBR 181350Z 14003KT 9999 FEW038 BKN070 03/03 Q1021 NOSIG RMK WIND 1200FT 16007KT=

TAF

RABR

ENBR 181100Z 1812/1912 VRB05KT 9999 SCT012 BKN030 BECMG 1818/1821 15010KT -RA BKN012 TEMPO 1823/1912 3000 DZRA BR BKN007=

ENBL (13:20 UTC)

Førde flygplats, Bringeland

METAR

RA

ENBL 181320Z 25003KT 230V310 8000 -RASN FEW010 SCT015 BKN020 01/00 Q1019=

TAF

Ingen TAF hittades.

ENOV (13:20 UTC)

Ørsta-Volda flygplats, Hovden

METAR

RA

ENOV 181320Z 04005KT 340V080 9999 -RA FEW012 SCT020 BKN025 02/01 Q1019 RMK WIND 2175FT 23014KT=

TAF

Ingen TAF hittades.

ENML (13:50 UTC)

Molde flygplats, Årø

METAR

SHRA

ENML 181350Z 23012KT 7000 SHRA FEW010 SCT015 BKN024 03/01 Q1018=

TAF

SHRA

ENML 181100Z 1812/1821 25015KT 9999 -SHRA FEW015 BKN030 BECMG 1814/1817 VRB06KT=

ENKB (13:50 UTC)

Kristiansund flygplats, Kvernberget

METAR

SHRA

ENKB 181350Z 24010KT 9999 VCSH SCT028 BKN100 05/01 Q1016 RMK WIND 745FT 24020KT=

TAF

SHRATCU

ENKB 181100Z 1812/1821 26015KT 9999 -SHRA FEW020TCU BKN040 TEMPO 1812/1813 26018G30KT SHRA BKN012TCU BECMG 1815/1818 20008KT=

ENRO (13:50 UTC)

Røros flygplats

METAR

ENRO 181350Z 22005KT 9999 FEW017 BKN035 M08/M09 Q1014=

TAF

ENRO 181100Z 1812/1819 VRB05KT 9999 SCT030 TEMPO 1812/1819 24012KT=

ENVA (13:50 UTC)

Trondheim flygplats, Værnes

METAR

SHRA

ENVA 181350Z 25018KT 9999 -SHRA FEW010 SCT019 BKN028 03/01 Q1015 TEMPO 25020G30KT SHRA BKN014TCU RMK WIND 670FT 27021G31KT=

TAF

SHRATCU

ENVA 181100Z 1812/1912 25015KT 9999 FEW012 BKN040 TEMPO 1812/1814 25020G30KT SHRA BKN014TCU BECMG 1819/1821 13008KT=

ENOL (13:50 UTC)

Ørland flygplats

METAR

SHRATCU

ENOL 181350Z 26022KT 9999 VCSH FEW008 SCT012TCU BKN035 05/02 Q1014 TEMPO SHRA SCT008 BKN012TCU=

TAF

SHRATCU

ENOL 181100Z 1812/1912 25018KT 9999 FEW010 BKN030 TEMPO 1812/1814 26020G30KT TEMPO 1812/1821 SHRA SCT008 BKN012TCU BECMG 1823/1901 14012KT BECMG 1904/1906 BKN014 TEMPO 1906/1911 4000 RADZ SCT005 BKN008 BECMG 1907/1910 24015G25KT TEMPO 1909/1912 24025G35KT=

ENRM (13:50 UTC)

Rørvik flygplats, Ryum

METAR

SHRA

ENRM 181350Z 26011KT 9999 VCSH FEW012 SCT026 BKN060 05/02 Q1011=

TAF

SHRA

ENRM 181100Z 1812/1821 28020G30KT 9999 -SHRA FEW010 BKN020 TEMPO 1812/1814 SHRA BKN010 BECMG 1815/1817 25012KT=

ENBN (13:50 UTC)

Brønnøysund flygplats, Brønnøy

METAR

ENBN 181350Z 30007KT 9999 FEW007 SCT015 BKN030 04/03 Q1009=

TAF

RA

ENBN 181100Z 1812/1820 23015KT 9999 -RA FEW005 BKN020 TEMPO 1812/1815 4000 RA BKN008=

ENRA (13:50 UTC)

Mo i Rana flygplats, Røssvoll

METAR

ENRA 181350Z VRB01KT 9999 SCT030 SCT040 M01/M02 Q1007=

TAF

SN

ENRA 181100Z 1812/1821 VRB05KT 7000 -SN FEW010 BKN018=

ENBO (13:50 UTC)

Bodö flygplats

METAR

ENBO 181350Z 08013KT CAVOK 01/M04 Q1007 NOSIG=

TAF

RA

ENBO 181100Z 1812/1912 10015KT 9999 FEW015 BKN040 BECMG 1909/1911 21025KT TEMPO 1909/1912 22030G40KT RA=

ENSH (13:50 UTC)

Svolvær flygplats, Helle

METAR

ENSH 181350Z 05007KT CAVOK 02/M02 Q1007 RMK WIND 150FT 06001KT=

TAF

SHSN

ENSH 181100Z 1812/1821 05008KT 9999 FEW010 SCT030 PROB40 TEMPO 1815/1821 4000 SHSNRA VV006=

ENAN (13:50 UTC)

Andøya flygplats

METAR

ENAN 181350Z 17006KT 9999 FEW020 M02/M03 Q1007=

TAF

RA

ENAN 181100Z 1812/1912 22008KT 9999 FEW008 BKN025 BECMG 1823/1901 22020KT BECMG 1908/1910 20035KT TEMPO 1910/1912 RA BKN014=

ENEV (13:50 UTC)

Harstad-Narvik flygplats

METAR

ENEV 181350Z VRB01KT CAVOK M04/M05 Q1008 RMK WIND 1400FT 11009KT=

TAF

ENEV 181100Z 1812/1821 14005KT 9999 FEW010 SCT030=

ENDU (13:50 UTC)

Bardufoss flygplats

METAR

ENDU 181350Z VRB02KT CAVOK M16/M18 Q1008 NOSIG RMK WIND 1100FT 19005KT WIND 2200FT 00000KT=

TAF

FZRA

ENDU 181100Z 1812/1912 VRB05KT 9999 FEW008 SCT030 TEMPO 1909/1912 12010KT 4000 -SN VV014 PROB30 TEMPO 1909/1912 FZRA=

ENTC (13:50 UTC)

Tromsø flygplats

METAR

SHRA

ENTC 181350Z 22008KT 9999 VCSH FEW010 BKN029 BKN042 M00/M02 Q1008 NOSIG RMK WIND 2600FT 30010KT=

TAF

RA

ENTC 181100Z 1812/1912 20008KT 9999 FEW015 BKN030 TEMPO 1906/1912 20025KT RA BKN010=

ENAT (13:50 UTC)

Alta flygplats

METAR

ENAT 181350Z 21006KT 9999 SCT040 M09/M11 Q1007 RMK WIND 700FT 16009KT=

TAF

ENAT 181100Z 1812/1821 16005KT 9999 FEW020 SCT030=

ENNA (13:50 UTC)

Lakselv flygplats

METAR

ENNA 181350Z 12006KT 9999 SCT047 M05/M08 Q1006 RMK WIND 1800FT 27017KT=

TAF

ENNA 181100Z 1812/1912 18008KT 9999 FEW015 SCT030 TEMPO 1903/1912 18018KT=

ENHF (13:50 UTC)

Hammerfest flygplats

METAR

SHRA

ENHF 181350Z 24010KT 210V280 9999 VCSH FEW006 BKN040 01/M01 Q1005 RMK WIND 1254FT 28013KT=

TAF

SHSN

ENHF 181100Z 1812/1821 24008KT 9999 SCT015 BKN030 TEMPO 1812/1821 1000 SHSN VV005=

ENKR (13:50 UTC)

Kirkenes Airport, Høybuktmoen

METAR

ENKR 181350Z 23009KT 9999 SCT022 BKN032 M08/M11 Q1005 RMK WIND 731FT 22007KT=

TAF

ENKR 181100Z 1812/1821 20009KT 9999 SCT030 TEMPO 1812/1821 BKN010=

ENLK (13:50 UTC)

Leknes Airport

METAR

ENLK 181350Z VRB01KT 9999 FEW025 BKN055 02/M02 Q1007=

TAF

Ingen TAF hittades.

ENNO (13:50 UTC)

Notodden Airport, Tuven

METAR

ENNO 181350Z VRB02KT CAVOK M07/M09 Q1020=

TAF

ENNO 181100Z 1812/1818 33005KT 9999 FEW010=

ENST (13:50 UTC)

Sandnessjøen Airport, Stokka

METAR

SHRA

ENST 181350Z 17003KT 9999 -SHRA FEW010 SCT017 BKN020 02/01 Q1008 RMK WIND 300FT 21003KT=

TAF

Ingen TAF hittades.

ENSB (13:50 UTC)

Svalbard Airport, Longyear

METAR

ENSB 181350Z 11008KT 9999 FEW028 SCT050 M08/M11 Q1004 RMK WIND 1400FT VRB03KT=

TAF

ENSB 181100Z 1812/1912 10008KT 9999 FEW010 BKN025 BECMG 1821/1824 12020KT TEMPO 1908/1912 12020G30KT=

ENSK (13:50 UTC)

Stokmarknes Airport, Skagen

METAR

ENSK 181350Z 02004KT CAVOK M01/M03 Q1007=

TAF

Ingen TAF hittades.

ENSR (13:50 UTC)

Sørkjosen Airport

METAR

ENSR 181350Z VRB02KT 9999 BKN045 M05/M09 Q1008 WIND 1119FT VRB04KT=

TAF

Ingen TAF hittades.

ENNM (13:50 UTC)

Namsos Airport, Høknesøra

METAR

SHRA

ENNM 181350Z 26011KT 9999 -SHRA FEW010 SCT018 BKN025 04/02 Q1012=

TAF

Ingen TAF hittades.